createdAt,value
2018-03-09T00:01:15.211Z,1.93
2018-03-09T00:03:41.475Z,2.10
2018-03-09T00:06:07.678Z,1.90
2018-03-09T00:08:33.864Z,2.20
2018-03-09T00:11:01.355Z,2.40
2018-03-09T00:13:27.535Z,2.60
2018-03-09T00:15:53.900Z,2.57
2018-03-09T00:18:20.190Z,2.13
2018-03-09T00:20:46.383Z,2.50
2018-03-09T00:23:12.570Z,2.10
2018-03-09T00:25:39.537Z,2.60
2018-03-09T00:28:05.731Z,2.10
2018-03-09T00:30:31.937Z,2.23
2018-03-09T00:32:59.645Z,2.45
2018-03-09T00:35:25.904Z,2.35
2018-03-09T00:37:52.136Z,1.90
2018-03-09T00:40:18.345Z,2.00
2018-03-09T00:42:44.536Z,2.37
2018-03-09T00:45:10.713Z,1.70
2018-03-09T00:47:36.913Z,3.30
2018-03-09T00:50:09.006Z,2.03
2018-03-09T00:52:35.214Z,3.30
2018-03-09T00:55:01.419Z,2.23
2018-03-09T00:57:29.319Z,2.30
2018-03-09T00:59:55.626Z,2.25
2018-03-09T01:12:07.617Z,1.90
2018-03-09T01:14:33.837Z,2.05
2018-03-09T01:17:00.052Z,1.92
2018-03-09T01:19:26.313Z,1.90
2018-03-09T01:21:52.520Z,2.10
2018-03-09T01:24:19.847Z,2.17
2018-03-09T01:26:46.905Z,2.12
2018-03-09T01:29:13.854Z,2.42
2018-03-09T01:31:40.811Z,1.85
2018-03-09T01:34:07.805Z,2.30
2018-03-09T01:36:34.060Z,2.30
2018-03-09T01:39:00.967Z,2.15
2018-03-09T01:41:27.182Z,1.90
2018-03-09T01:43:53.363Z,1.80
2018-03-09T01:46:19.538Z,2.33
2018-03-09T01:48:45.741Z,2.67
2018-03-09T01:51:12.621Z,2.50
2018-03-09T01:53:38.808Z,2.20
2018-03-09T01:56:05.790Z,2.72
2018-03-09T01:58:32.022Z,3.35
2018-03-09T02:00:58.270Z,3.00
2018-03-09T02:03:25.773Z,2.33
2018-03-09T02:05:52.752Z,2.80
2018-03-09T02:08:18.979Z,2.57
2018-03-09T02:10:45.201Z,3.45
2018-03-09T02:13:11.404Z,2.40
2018-03-09T02:15:38.364Z,2.70
2018-03-09T02:18:05.298Z,3.30
2018-03-09T02:20:31.532Z,2.90
2018-03-09T02:22:58.520Z,2.97
2018-03-09T02:25:24.745Z,2.55
2018-03-09T02:27:50.970Z,2.55
2018-03-09T02:30:17.231Z,2.95
2018-03-09T02:32:43.983Z,3.07
2018-03-09T02:35:10.928Z,3.65
2018-03-09T02:37:37.151Z,3.83
2018-03-09T02:40:03.461Z,3.97
2018-03-09T02:42:29.723Z,3.53
2018-03-09T02:44:55.897Z,4.12
2018-03-09T02:47:22.126Z,3.70
2018-03-09T02:49:48.324Z,3.50
2018-03-09T02:52:14.552Z,3.80
2018-03-09T02:54:41.546Z,4.00
2018-03-09T02:57:07.853Z,3.67
2018-03-09T02:59:34.534Z,4.22
2018-03-09T03:02:01.100Z,3.72
2018-03-09T03:04:27.321Z,4.55
2018-03-09T03:06:53.618Z,3.65
2018-03-09T03:09:19.862Z,4.60
2018-03-09T03:11:46.120Z,4.03
2018-03-09T03:14:13.062Z,4.00
2018-03-09T03:16:39.250Z,3.67
2018-03-09T03:19:06.190Z,3.90
2018-03-09T03:21:32.450Z,4.03
2018-03-09T03:23:58.696Z,3.85
2018-03-09T03:26:25.677Z,4.20
2018-03-09T03:28:51.933Z,3.67
2018-03-09T03:31:18.170Z,3.60
2018-03-09T03:33:46.061Z,3.47
2018-03-09T03:36:12.331Z,4.07
2018-03-09T03:38:39.128Z,3.47
2018-03-09T03:41:05.358Z,3.50
2018-03-09T03:43:32.306Z,4.07
2018-03-09T03:45:58.519Z,4.37
2018-03-09T03:48:25.358Z,4.33
2018-03-09T03:50:52.504Z,4.70
2018-03-09T03:53:18.714Z,3.87
2018-03-09T03:55:44.968Z,4.83
2018-03-09T03:58:11.178Z,4.00
2018-03-09T04:00:37.455Z,3.83
2018-03-09T04:03:04.435Z,4.70
2018-03-09T04:05:31.395Z,4.30
2018-03-09T04:07:57.622Z,4.77
2018-03-09T04:10:23.843Z,4.20
2018-03-09T04:12:50.053Z,4.87
2018-03-09T04:15:16.283Z,4.57
2018-03-09T04:17:42.493Z,3.95
2018-03-09T04:20:08.794Z,4.00
2018-03-09T04:22:34.979Z,4.90
2018-03-09T04:25:01.979Z,4.53
2018-03-09T04:27:28.934Z,5.43
2018-03-09T04:29:55.222Z,4.00
2018-03-09T04:32:21.447Z,4.53
2018-03-09T04:34:47.642Z,5.10
2018-03-09T04:37:14.606Z,4.07
2018-03-09T04:39:40.801Z,4.33
2018-03-09T04:42:07.181Z,5.00
2018-03-09T04:44:33.424Z,4.70
2018-03-09T04:46:59.621Z,4.17
2018-03-09T04:49:25.867Z,4.68
2018-03-09T04:51:53.002Z,4.07
2018-03-09T04:54:20.228Z,4.60
2018-03-09T04:56:47.462Z,5.23
2018-03-09T04:59:13.673Z,4.73
2018-03-09T05:01:39.951Z,5.23
2018-03-09T05:04:06.806Z,4.10
2018-03-09T05:06:33.606Z,4.93
2018-03-09T05:09:00.487Z,5.10
2018-03-09T05:11:27.987Z,4.90
2018-03-09T05:13:54.810Z,5.20
2018-03-09T05:16:21.606Z,5.97
2018-03-09T05:18:48.731Z,6.30
2018-03-09T05:21:16.012Z,6.00
2018-03-09T05:23:42.194Z,5.27
2018-03-09T06:48:05.594Z,6.45
2018-03-09T06:50:32.656Z,7.30
2018-03-09T06:52:59.737Z,6.60
2018-03-09T06:55:26.011Z,6.10
2018-03-09T06:57:53.292Z,6.50
2018-03-09T07:00:20.824Z,7.03
2018-03-09T07:02:47.088Z,6.13
2018-03-09T07:05:13.285Z,6.70
2018-03-09T07:07:41.040Z,6.27
2018-03-09T07:10:07.363Z,6.47
2018-03-09T07:12:33.618Z,7.53
2018-03-09T07:15:00.603Z,4.27
2018-03-09T07:17:26.844Z,6.17
2018-03-09T07:19:53.194Z,6.43
2018-03-09T07:22:20.307Z,5.77
2018-03-09T07:24:46.545Z,6.80
2018-03-09T07:27:13.664Z,7.40
2018-03-09T07:29:40.628Z,7.13
2018-03-09T07:32:06.884Z,6.93
2018-03-09T07:34:33.229Z,6.80
2018-03-09T07:36:59.837Z,7.20
2018-03-09T07:39:26.099Z,7.00
2018-03-09T07:41:52.301Z,7.30
2018-03-09T07:44:18.581Z,7.70
2018-03-09T07:46:44.831Z,7.57
2018-03-09T07:49:11.767Z,7.60
2018-03-09T07:51:39.638Z,8.57
2018-03-09T07:54:05.820Z,8.60
2018-03-09T07:56:32.202Z,7.50
2018-03-09T07:58:58.401Z,8.10
2018-03-09T08:01:24.614Z,9.83
2018-03-09T08:04:05.708Z,8.90
2018-03-09T08:06:32.192Z,8.20
2018-03-09T08:08:58.422Z,9.83
2018-03-09T08:11:24.613Z,10.23
2018-03-09T08:13:51.591Z,9.30
2018-03-09T08:16:17.794Z,8.80
2018-03-09T08:18:44.530Z,9.40
2018-03-09T08:21:10.720Z,8.97
2018-03-09T08:23:36.953Z,8.63
2018-03-09T08:26:03.223Z,9.70
2018-03-09T08:28:31.115Z,8.33
2018-03-09T08:30:58.220Z,8.53
2018-03-09T08:33:24.458Z,8.77
2018-03-09T08:35:52.312Z,8.23
2018-03-09T08:38:18.535Z,8.90
2018-03-09T08:40:44.743Z,10.37
2018-03-09T08:43:10.944Z,9.43
2018-03-09T08:45:37.172Z,10.67
2018-03-09T08:48:03.889Z,9.17
2018-03-09T08:50:31.164Z,9.00
2018-03-09T08:52:59.002Z,9.23
2018-03-09T08:55:25.837Z,10.30
2018-03-09T08:57:52.939Z,10.17
2018-03-09T09:00:19.309Z,9.97
2018-03-09T09:02:45.542Z,9.70
2018-03-09T09:05:11.802Z,10.93
2018-03-09T09:07:38.776Z,8.90
2018-03-09T09:10:05.011Z,10.70
2018-03-09T09:12:32.038Z,9.40
2018-03-09T09:14:58.250Z,11.70
2018-03-09T09:17:24.667Z,10.27
2018-03-09T09:29:35.921Z,9.90
2018-03-09T09:32:04.049Z,10.13
2018-03-09T09:34:31.482Z,10.07
2018-03-09T09:36:59.039Z,10.80
2018-03-09T09:39:25.966Z,12.10
2018-03-09T09:41:53.989Z,10.13
2018-03-09T09:44:20.216Z,11.60
2018-03-09T09:46:46.452Z,14.30
2018-03-09T09:49:12.748Z,13.80
2018-03-09T09:51:39.061Z,11.97
2018-03-09T09:54:06.031Z,12.23
2018-03-09T09:56:32.403Z,11.30
2018-03-09T09:58:59.109Z,11.03
2018-03-09T10:01:25.349Z,11.20
2018-03-09T10:03:51.567Z,11.80
2018-03-09T10:06:19.748Z,12.73
2018-03-09T10:08:46.048Z,11.50
2018-03-09T10:11:13.042Z,11.10
2018-03-09T10:13:41.559Z,10.77
2018-03-09T10:16:08.959Z,10.77
2018-03-09T10:18:35.535Z,11.53
2018-03-09T10:21:03.124Z,10.20
2018-03-09T10:23:30.120Z,12.47
2018-03-09T10:25:56.362Z,11.07
2018-03-09T10:28:24.042Z,12.17
2018-03-09T10:30:50.314Z,12.57
2018-03-09T10:33:16.556Z,12.67
2018-03-09T10:35:42.758Z,12.57
2018-03-09T10:38:09.695Z,12.97
2018-03-09T10:40:36.834Z,12.47
2018-03-09T10:43:03.093Z,13.27
2018-03-09T10:45:30.717Z,15.30
2018-03-09T10:47:56.981Z,12.87
2018-03-09T10:50:23.957Z,12.80
2018-03-09T10:52:53.060Z,14.43
2018-03-09T10:55:19.687Z,13.13
2018-03-09T10:57:45.991Z,13.70
2018-03-09T11:00:20.225Z,5.07
2018-03-09T11:02:47.144Z,11.67
2018-03-09T11:05:14.165Z,11.40
2018-03-09T11:07:40.342Z,8.67
2018-03-09T11:10:06.935Z,13.23
2018-03-09T11:12:33.167Z,17.27
2018-03-09T11:14:59.800Z,16.90
2018-03-09T11:17:26.398Z,17.73
2018-03-09T11:19:52.612Z,19.80
2018-03-09T11:22:19.186Z,18.73
2018-03-09T11:24:46.298Z,17.27
2018-03-09T11:27:14.156Z,20.20
2018-03-09T11:29:41.224Z,9.17
2018-03-09T11:32:07.417Z,17.83
2018-03-09T11:34:34.497Z,19.00
2018-03-09T11:37:00.799Z,19.53
2018-03-09T11:39:27.839Z,19.70
2018-03-09T11:41:54.121Z,19.73
2018-03-09T11:44:21.429Z,21.20
2018-03-09T11:46:48.587Z,21.57
2018-03-09T11:49:15.582Z,19.40
2018-03-09T11:51:41.754Z,18.03
2018-03-09T11:54:07.967Z,19.20
2018-03-09T11:56:34.243Z,18.83
2018-03-09T11:59:00.441Z,17.93
2018-03-09T12:01:26.695Z,18.40
2018-03-09T12:03:52.871Z,18.87
2018-03-09T12:06:19.094Z,20.87
2018-03-09T12:08:45.325Z,16.67
2018-03-09T12:11:12.444Z,19.10
2018-03-09T12:13:38.663Z,25.33
2018-03-09T12:16:04.912Z,24.90
2018-03-09T12:18:31.137Z,23.10
2018-03-09T12:20:57.630Z,19.10
2018-03-09T12:23:23.830Z,17.70
2018-03-09T12:25:51.395Z,17.50
2018-03-09T12:28:17.602Z,18.70
2018-03-09T12:30:45.260Z,18.50
2018-03-09T12:33:11.561Z,17.73
2018-03-09T12:35:39.281Z,18.00
2018-03-09T12:38:05.977Z,16.23
2018-03-09T12:40:32.229Z,16.53
2018-03-09T12:42:59.528Z,18.00
2018-03-09T12:45:25.803Z,17.03
2018-03-09T12:47:52.094Z,17.00
2018-03-09T12:50:19.173Z,16.80
2018-03-09T12:52:46.255Z,16.70
2018-03-09T12:55:12.582Z,22.10
2018-03-09T12:57:40.571Z,21.17
2018-03-09T13:00:07.263Z,21.87
2018-03-09T13:02:33.488Z,18.20
2018-03-09T13:05:00.238Z,16.30
2018-03-09T13:07:27.921Z,21.23
2018-03-09T13:09:55.742Z,20.13
2018-03-09T13:12:27.696Z,19.43
2018-03-09T13:14:54.881Z,20.43
2018-03-09T13:17:25.020Z,16.57
2018-03-09T13:19:51.292Z,15.97
2018-03-09T13:32:03.468Z,15.17
2018-03-09T13:34:30.468Z,17.90
2018-03-09T13:36:56.729Z,18.80
2018-03-09T13:39:23.888Z,18.00
2018-03-09T13:41:50.931Z,16.90
2018-03-09T13:44:17.151Z,17.40
2018-03-09T13:46:43.349Z,18.50
2018-03-09T13:49:09.579Z,18.87
2018-03-09T13:51:35.762Z,18.43
2018-03-09T13:54:03.104Z,18.87
2018-03-09T13:56:29.339Z,19.53
2018-03-09T13:58:55.599Z,18.47
2018-03-09T14:01:22.227Z,19.23
2018-03-09T14:03:48.489Z,17.00
2018-03-09T14:06:14.696Z,18.80
2018-03-09T14:08:41.000Z,18.50
2018-03-09T14:11:07.174Z,18.50
2018-03-09T14:13:33.445Z,16.60
2018-03-09T14:15:59.701Z,18.47
2018-03-09T14:18:26.712Z,18.90
2018-03-09T14:20:53.818Z,17.20
2018-03-09T14:23:20.800Z,18.43
2018-03-09T14:25:48.354Z,18.10
2018-03-09T14:28:14.683Z,18.43
2018-03-09T14:30:41.915Z,19.07
2018-03-09T14:33:08.133Z,17.50
2018-03-09T14:35:34.391Z,17.23
2018-03-09T14:38:01.072Z,18.03
2018-03-09T14:40:28.150Z,18.33
2018-03-09T14:42:54.473Z,17.10
2018-03-09T14:45:20.681Z,17.90
2018-03-09T14:47:47.092Z,16.20
2018-03-09T14:50:15.175Z,16.33
2018-03-09T14:52:41.426Z,15.87
2018-03-09T14:55:08.481Z,15.43
2018-03-09T14:57:36.162Z,15.83
2018-03-09T15:00:02.522Z,14.73
2018-03-09T15:02:28.842Z,13.93
2018-03-09T15:04:55.070Z,15.97
2018-03-09T15:07:21.305Z,15.80
2018-03-09T15:09:47.716Z,15.90
2018-03-09T15:12:14.025Z,15.87
2018-03-09T15:14:40.990Z,16.00
2018-03-09T15:17:07.711Z,15.83
2018-03-09T15:19:34.627Z,16.00
2018-03-09T15:22:01.651Z,16.73
2018-03-09T15:24:28.733Z,16.83
2018-03-09T15:26:55.716Z,16.53
2018-03-09T15:29:21.935Z,15.47
2018-03-09T15:31:49.062Z,11.03
2018-03-09T15:34:15.293Z,15.33
2018-03-09T15:36:41.532Z,13.00
2018-03-09T15:39:09.703Z,15.60
2018-03-09T15:41:36.650Z,16.57
2018-03-09T15:44:03.639Z,17.20
2018-03-09T15:46:29.901Z,9.77
2018-03-09T15:48:57.138Z,16.70
2018-03-09T15:51:24.266Z,16.87
2018-03-09T15:53:50.499Z,19.90
2018-03-09T15:56:17.674Z,18.43
2018-03-09T15:58:43.932Z,19.27
2018-03-09T16:01:10.134Z,17.87
2018-03-09T16:03:36.350Z,20.40
2018-03-09T16:06:02.602Z,20.97
2018-03-09T16:08:30.594Z,19.10
2018-03-09T16:10:56.904Z,20.47
2018-03-09T16:13:23.136Z,18.70
2018-03-09T16:15:49.386Z,21.10
2018-03-09T16:18:16.440Z,20.37
2018-03-09T16:30:28.423Z,22.10
2018-03-09T16:32:56.964Z,22.33
2018-03-09T16:35:23.261Z,22.13
2018-03-09T16:37:49.504Z,23.77
2018-03-09T16:40:15.745Z,23.80
2018-03-09T16:42:42.750Z,23.47
2018-03-09T16:45:09.028Z,24.27
2018-03-09T16:47:35.251Z,22.93
2018-03-09T16:50:01.584Z,24.23
2018-03-09T16:52:27.841Z,25.40
2018-03-09T16:54:54.820Z,24.50
2018-03-09T16:57:21.155Z,23.27
2018-03-09T16:59:47.407Z,24.70
2018-03-09T17:02:13.721Z,23.30
2018-03-09T17:04:40.313Z,24.20
2018-03-09T17:07:07.281Z,23.47
2018-03-09T17:09:34.533Z,25.87
2018-03-09T17:12:00.845Z,23.90
2018-03-09T17:14:27.808Z,22.47
2018-03-09T17:16:54.762Z,23.90
2018-03-09T17:19:21.029Z,25.17
2018-03-09T17:21:47.291Z,24.20
2018-03-09T17:24:14.296Z,23.43
2018-03-09T17:26:41.351Z,24.27
2018-03-09T17:29:07.681Z,24.77
2018-03-09T17:31:34.747Z,24.27
2018-03-09T17:34:01.002Z,25.67
2018-03-09T17:36:28.309Z,25.23
2018-03-09T17:38:54.581Z,23.13
2018-03-09T17:41:20.819Z,23.70
2018-03-09T17:43:47.876Z,22.80
2018-03-09T17:46:15.770Z,24.43
2018-03-09T17:48:42.059Z,26.30
2018-03-09T17:51:08.319Z,27.37
2018-03-09T17:53:34.479Z,28.73
2018-03-09T17:56:01.539Z,27.03
2018-03-09T17:58:27.739Z,26.03
2018-03-09T18:00:54.376Z,27.50
2018-03-09T18:03:21.000Z,28.13
2018-03-09T18:05:47.369Z,27.87
2018-03-09T18:08:13.699Z,27.43
2018-03-09T18:10:40.082Z,27.83
2018-03-09T18:13:07.498Z,27.47
2018-03-09T18:15:33.753Z,27.23
2018-03-09T18:18:00.720Z,26.97
2018-03-09T18:20:27.055Z,27.23
2018-03-09T18:22:53.826Z,27.00
2018-03-09T18:25:20.589Z,25.90
2018-03-09T18:27:46.839Z,26.07
2018-03-09T18:30:13.117Z,26.63
2018-03-09T18:32:39.481Z,25.87
2018-03-09T18:35:05.780Z,30.40
2018-03-09T18:37:32.032Z,28.43
2018-03-09T18:40:01.242Z,27.07
2018-03-09T18:42:30.528Z,26.63
2018-03-09T18:45:01.576Z,27.10
2018-03-09T18:47:32.541Z,26.83
2018-03-09T18:50:03.956Z,27.23
2018-03-09T18:52:30.196Z,25.00
2018-03-09T18:54:57.152Z,27.73
2018-03-09T18:57:24.461Z,27.57
2018-03-09T18:59:50.746Z,27.03
2018-03-09T19:02:17.017Z,26.53
2018-03-09T19:04:43.507Z,26.83
2018-03-09T19:07:09.747Z,24.33
2018-03-09T19:09:36.763Z,27.30
2018-03-09T19:12:04.819Z,25.27
2018-03-09T19:14:31.092Z,26.73
2018-03-09T19:16:57.339Z,25.80
2018-03-09T19:19:25.223Z,27.63
2018-03-09T19:21:52.120Z,26.07
2018-03-09T19:24:18.452Z,25.57
2018-03-09T19:26:44.744Z,27.03
2018-03-09T19:29:11.051Z,25.93
2018-03-09T19:31:38.187Z,28.50
2018-03-09T19:34:06.184Z,28.13
2018-03-09T19:36:32.412Z,26.53
2018-03-09T19:38:58.670Z,26.77
2018-03-09T19:41:25.138Z,25.77
2018-03-09T19:43:52.122Z,26.77
2018-03-09T19:46:18.451Z,27.20
2018-03-09T19:48:44.982Z,26.37
2018-03-09T19:51:12.332Z,25.30
2018-03-09T19:53:39.346Z,26.77
2018-03-09T19:56:05.689Z,27.40
2018-03-09T19:58:32.413Z,27.33
2018-03-09T20:00:58.785Z,27.47
2018-03-09T20:03:25.797Z,27.83
2018-03-09T20:05:52.109Z,28.53
2018-03-09T20:08:18.454Z,28.47
2018-03-09T20:10:45.406Z,28.40
2018-03-09T20:13:11.687Z,27.10
2018-03-09T20:15:38.772Z,27.40
2018-03-09T20:18:05.061Z,27.77
2018-03-09T20:20:32.040Z,27.73
2018-03-09T20:22:58.391Z,25.90
2018-03-09T20:25:25.827Z,25.30
2018-03-09T20:27:53.115Z,27.90
2018-03-09T20:30:20.159Z,26.77
2018-03-09T20:32:46.474Z,27.43
2018-03-09T20:35:12.674Z,27.17
2018-03-09T20:37:39.401Z,27.90
2018-03-09T20:40:06.088Z,26.47
2018-03-09T20:42:32.398Z,26.60
2018-03-09T20:44:59.560Z,29.77
2018-03-09T20:47:26.507Z,28.30
2018-03-09T20:49:53.154Z,29.83
2018-03-09T20:52:19.362Z,28.93
2018-03-09T20:54:45.774Z,28.83
2018-03-09T20:57:12.546Z,27.97
2018-03-09T20:59:39.004Z,28.67
2018-03-09T21:02:07.830Z,28.90
2018-03-09T21:04:34.934Z,28.30
2018-03-09T21:07:01.228Z,27.83
2018-03-09T21:09:28.539Z,26.73
2018-03-09T21:11:55.577Z,26.03
2018-03-09T21:14:21.841Z,26.93
2018-03-09T21:16:48.802Z,26.30
2018-03-09T21:19:15.856Z,28.40
2018-03-09T21:21:42.755Z,26.73
2018-03-09T21:24:10.091Z,29.03
2018-03-09T21:26:36.350Z,30.50
2018-03-09T21:29:07.576Z,31.23
2018-03-09T21:41:18.871Z,26.13
2018-03-09T21:43:45.546Z,28.27
2018-03-09T21:46:13.875Z,27.30
2018-03-09T21:48:41.307Z,27.30
2018-03-09T21:51:08.148Z,29.70
2018-03-09T21:53:35.491Z,28.27
2018-03-09T21:56:03.615Z,29.50
2018-03-09T21:58:29.908Z,27.63
2018-03-09T22:00:57.996Z,28.40
2018-03-09T22:03:27.104Z,31.13
2018-03-09T22:05:55.462Z,29.70
2018-03-09T22:08:22.555Z,27.00
2018-03-09T22:10:50.542Z,27.80
2018-03-09T22:13:17.775Z,27.20
2018-03-09T22:15:44.005Z,27.87
2018-03-09T22:18:10.242Z,25.40
2018-03-09T22:20:36.447Z,28.20
2018-03-09T22:23:04.568Z,28.87
2018-03-09T22:25:30.934Z,27.67
2018-03-09T22:27:58.231Z,25.60
2018-03-09T22:30:24.409Z,27.70
2018-03-09T22:32:51.095Z,28.33
2018-03-09T22:35:17.334Z,26.10
2018-03-09T22:37:44.575Z,26.90
2018-03-09T22:40:10.825Z,25.10
2018-03-09T22:42:37.048Z,25.97
2018-03-09T22:45:03.755Z,25.83
2018-03-09T22:47:31.581Z,25.97
2018-03-09T22:49:57.833Z,25.10
2018-03-09T22:52:24.129Z,25.20
2018-03-09T22:54:50.483Z,27.10
2018-03-09T22:57:16.758Z,26.07
2018-03-09T22:59:43.011Z,27.87
2018-03-09T23:11:54.338Z,24.40
2018-03-09T23:14:20.608Z,26.50
2018-03-09T23:16:47.763Z,27.67
2018-03-09T23:19:13.994Z,27.10
2018-03-09T23:21:41.175Z,27.40
2018-03-09T23:24:08.164Z,24.97
2018-03-09T23:26:35.145Z,25.90
2018-03-09T23:29:01.392Z,25.60
2018-03-09T23:31:27.578Z,23.90
2018-03-09T23:33:53.807Z,25.47
2018-03-09T23:36:20.614Z,26.53
2018-03-09T23:38:46.868Z,25.57
2018-03-09T23:41:13.366Z,26.40
2018-03-09T23:43:40.857Z,25.37
2018-03-09T23:46:07.046Z,26.00
2018-03-09T23:48:34.055Z,26.17
2018-03-09T23:51:00.233Z,25.30
2018-03-09T23:53:27.178Z,27.30
2018-03-09T23:55:54.202Z,25.30
2018-03-09T23:58:20.486Z,25.30
